Time;durP1;ratioP1;P1;durP2;ratioP2;P2;SDS_P1;SDS_P2;PMS_P1;PMS_P2;Temp;Humidity;BMP_temperature;BMP_pressure;BME280_temperature;BME280_humidity;BME280_pressure;Samples;Min_cycle;Max_cycle;Signal;HPM_P1;HPM_P2
2022/07/27 00:01:09;;;;;;;4.95;2.10;;;21.50;77.40;;;21.58;100.00;100432.50;5028785;28;20042;-74
2022/07/27 00:03:36;;;;;;;4.95;2.30;;;21.50;77.80;;;21.47;100.00;100434.13;5011341;28;20136;-74
2022/07/27 00:06:03;;;;;;;5.18;2.70;;;21.50;78.20;;;21.30;100.00;100437.94;5027586;28;20049;-74
2022/07/27 00:08:31;;;;;;;6.28;2.75;;;21.40;78.60;;;21.43;100.00;100445.97;5027859;28;20045;-74
2022/07/27 00:10:58;;;;;;;4.38;2.60;;;21.40;79.30;;;21.49;100.00;100445.56;5028551;28;20057;-74
2022/07/27 00:13:25;;;;;;;2.70;2.10;;;21.40;80.20;;;21.46;100.00;100447.59;5041556;28;20049;-74
2022/07/27 00:15:52;;;;;;;3.97;2.42;;;21.50;80.70;;;21.50;100.00;100447.28;5028833;28;20417;-74
2022/07/27 00:18:19;;;;;;;3.72;2.85;;;21.40;81.30;;;21.56;100.00;100440.66;5027490;28;20045;-74
2022/07/27 00:20:46;;;;;;;3.60;1.98;;;21.40;81.40;;;21.51;100.00;100440.97;5043260;28;20579;-73
2022/07/27 00:23:13;;;;;;;3.33;2.13;;;21.40;81.50;;;21.62;100.00;100434.84;5027338;28;20060;-73
2022/07/27 00:25:40;;;;;;;4.22;2.20;;;21.40;81.40;;;21.62;100.00;100440.22;5026701;28;20043;-73
2022/07/27 00:28:07;;;;;;;2.33;2.10;;;21.40;81.60;;;21.56;100.00;100451.34;5048946;28;20059;-73
2022/07/27 00:30:34;;;;;;;4.65;2.08;;;21.40;82.20;;;21.43;100.00;100450.47;5048001;28;20490;-74
2022/07/27 00:33:02;;;;;;;3.30;2.25;;;21.40;82.60;;;21.49;100.00;100447.38;5031022;28;20421;-74
2022/07/27 00:35:29;;;;;;;3.47;2.30;;;21.40;83.00;;;21.56;100.00;100448.69;5030994;28;20048;-74
2022/07/27 00:37:56;;;;;;;3.67;2.42;;;21.40;83.10;;;21.60;100.00;100449.28;5047461;28;20041;-74
2022/07/27 00:40:25;;;;;;;2.63;2.22;;;21.40;83.40;;;21.66;100.00;100451.59;5046707;28;20040;-74
2022/07/27 00:42:52;;;;;;;6.72;2.10;;;21.40;83.30;;;21.65;100.00;100460.56;5048217;28;20048;-74
2022/07/27 00:45:19;;;;;;;3.35;2.25;;;21.40;83.70;;;21.62;100.00;100452.72;5047556;28;20037;-74
2022/07/27 00:47:46;;;;;;;2.55;2.20;;;21.50;84.40;;;21.58;100.00;100456.59;5029399;28;20429;-74
2022/07/27 00:50:20;;;;;;;4.28;2.25;;;21.50;84.60;;;21.64;100.00;100445.47;5047538;28;20045;-74
2022/07/27 00:52:48;;;;;;;3.00;2.00;;;21.50;85.00;;;21.61;100.00;100457.22;5032226;28;20114;-74
2022/07/27 00:55:15;;;;;;;3.58;2.10;;;21.50;85.00;;;21.68;100.00;100457.69;5026445;28;20042;-74
2022/07/27 00:57:42;;;;;;;3.20;2.22;;;21.50;84.50;;;21.63;100.00;100460.66;5043385;28;20061;-74
2022/07/27 01:00:26;;;;;;;2.58;2.08;;;21.80;85.20;;;21.56;100.00;100463.88;5027287;28;20045;-74
2022/07/27 01:02:53;;;;;;;2.75;2.00;;;21.50;85.90;;;21.62;100.00;100452.72;5026735;28;20493;-74
2022/07/27 01:05:23;;;;;;;2.83;2.25;;;21.50;86.00;;;21.62;100.00;100450.91;5029611;28;20049;-74
2022/07/27 01:08:03;;;;;;;3.83;1.90;;;21.50;86.30;;;21.65;100.00;100452.53;5046393;28;20048;-74
2022/07/27 01:10:31;;;;;;;4.50;2.22;;;21.50;86.10;;;21.58;100.00;100448.56;5047405;28;20048;-74
2022/07/27 01:12:58;;;;;;;4.10;2.20;;;21.50;86.70;;;21.56;100.00;100455.84;5046472;28;20509;-74
2022/07/27 01:15:26;;;;;;;2.88;2.13;;;21.40;86.50;;;21.62;100.00;100453.59;5045991;28;20045;-74
2022/07/27 01:17:53;;;;;;;2.92;2.00;;;21.50;87.10;;;21.56;100.00;100459.38;5045772;28;20128;-74
2022/07/27 01:20:20;;;;;;;2.88;2.00;;;21.40;87.30;;;21.57;100.00;100450.38;5045704;28;20049;-74
2022/07/27 01:22:47;;;;;;;4.10;2.13;;;21.40;87.50;;;21.51;100.00;100456.16;5045854;28;20047;-74
2022/07/27 01:25:14;;;;;;;5.05;2.47;;;21.50;88.50;;;21.51;100.00;100454.34;5045644;28;20052;-74
2022/07/27 01:27:41;;;;;;;2.85;2.05;;;21.40;89.00;;;21.61;100.00;100448.34;5046357;28;20044;-74
2022/07/27 01:30:29;;;;;;;2.95;2.17;;;21.40;89.20;;;21.60;100.00;100443.94;5046800;28;20037;-74
2022/07/27 01:33:01;;;;;;;9.85;2.65;;;21.40;89.10;;;21.61;100.00;100442.97;5029690;28;20067;-74
2022/07/27 01:35:29;;;;;;;2.30;1.67;;;21.40;89.20;;;21.59;100.00;100439.56;5045911;28;20052;-74
2022/07/27 01:37:56;;;;;;;3.88;2.05;;;21.40;89.60;;;21.56;100.00;100437.97;5046058;28;20586;-74
2022/07/27 01:40:24;;;;;;;2.30;2.10;;;21.40;89.70;;;21.59;100.00;100436.88;5045774;28;20045;-73
2022/07/27 01:42:51;;;;;;;5.88;1.88;;;22.20;90.30;;;21.58;100.00;100435.16;5047375;28;20039;-74
2022/07/27 01:45:18;;;;;;;2.10;1.90;;;21.40;90.10;;;21.58;100.00;100432.50;5045502;28;20045;-73
2022/07/27 01:47:46;;;;;;;5.28;1.73;;;21.40;90.10;;;21.46;100.00;100434.19;5045884;28;20048;-73
2022/07/27 01:50:13;;;;;;;3.08;2.28;;;21.40;90.10;;;21.50;100.00;100441.06;5045623;28;20501;-74
2022/07/27 01:52:40;;;;;;;4.25;2.20;;;21.40;90.40;;;21.60;100.00;100439.47;5041896;28;20434;-73
2022/07/27 01:55:09;;;;;;;4.63;1.90;;;21.40;90.40;;;21.53;100.00;100439.03;5025657;28;20045;-73
2022/07/27 01:57:37;;;;;;;4.68;1.90;;;21.40;90.30;;;21.54;100.00;100437.19;5043110;28;20493;-74
2022/07/27 02:00:09;;;;;;;2.22;2.03;;;21.40;90.60;;;21.39;100.00;100441.78;5025522;28;20052;-73
2022/07/27 02:02:40;;;;;;;3.30;2.33;;;21.40;90.70;;;21.47;100.00;100439.47;5026093;28;20095;-73
2022/07/27 02:05:11;;;;;;;2.70;2.05;;;21.30;90.70;;;21.50;100.00;100441.91;5009628;28;20049;-74
2022/07/27 02:07:40;;;;;;;3.90;2.53;;;21.30;90.70;;;21.60;100.00;100430.56;5025770;28;20510;-74
2022/07/27 02:10:08;;;;;;;4.80;2.33;;;21.40;90.50;;;21.55;100.00;100425.56;5009206;28;20786;-74
2022/07/27 02:12:36;;;;;;;4.60;1.95;;;21.40;90.60;;;21.53;100.00;100425.66;5009634;28;20045;-74
2022/07/27 02:15:11;;;;;;;3.25;2.00;;;21.40;90.50;;;21.49;100.00;100431.31;5042173;28;20059;-74
2022/07/27 02:17:43;;;;;;;2.17;1.77;;;21.40;90.80;;;21.42;100.00;100430.88;5009803;28;20449;-73
2022/07/27 02:20:13;;;;;;;2.90;2.00;;;21.30;90.70;;;21.49;100.00;100425.97;5008693;28;20049;-74
2022/07/27 02:22:41;;;;;;;2.90;2.17;;;21.30;90.60;;;21.46;100.00;100421.66;5025371;28;20296;-74
2022/07/27 02:25:11;;;;;;;4.18;2.60;;;21.30;90.90;;;21.49;100.00;100429.50;5025311;28;20047;-74
2022/07/27 02:27:40;;;;;;;3.45;2.30;;;21.40;90.90;;;21.50;100.00;100428.53;5027148;28;20046;-74
2022/07/27 02:30:09;;;;;;;2.87;2.13;;;21.30;90.80;;;21.50;100.00;100425.00;5010438;28;20051;-74
2022/07/27 02:32:36;;;;;;;5.00;1.97;;;21.30;90.80;;;21.41;100.00;100421.13;5029924;28;20069;-74
2022/07/27 02:35:04;;;;;;;2.85;2.53;;;21.30;91.00;;;21.35;100.00;100418.91;5012895;28;20061;-74
2022/07/27 02:37:47;;;;;;;3.38;1.88;;;21.30;90.90;;;21.39;100.00;100415.91;5030673;28;20049;-74
2022/07/27 02:40:16;;;;;;;2.78;2.17;;;21.30;91.10;;;21.44;100.00;100417.41;5029101;28;20453;-74
2022/07/27 02:42:45;;;;;;;2.90;2.03;;;21.30;91.10;;;21.43;100.00;100413.84;5029747;28;20728;-74
2022/07/27 02:45:14;;;;;;;4.07;2.08;;;21.30;91.10;;;21.37;100.00;100428.50;5028780;28;20276;-74
2022/07/27 02:47:43;;;;;;;2.35;2.00;;;21.30;91.10;;;21.42;100.00;100424.69;5029166;28;20067;-73
2022/07/27 02:50:10;;;;;;;3.67;2.20;;;21.20;91.00;;;21.39;100.00;100423.06;5028600;28;20053;-73
2022/07/27 02:52:38;;;;;;;3.47;1.83;;;21.20;91.10;;;21.44;100.00;100414.72;5034192;28;20053;-74
2022/07/27 02:55:06;;;;;;;2.55;1.77;;;21.20;91.00;;;21.37;100.00;100411.63;5049943;28;20047;-74
2022/07/27 02:57:36;;;;;;;2.92;1.88;;;21.20;91.20;;;21.33;100.00;100416.31;5048983;28;20131;-74
2022/07/27 03:00:14;;;;;;;2.83;2.10;;;21.20;91.20;;;21.39;100.00;100423.06;5048134;28;20053;-74
2022/07/27 03:02:41;;;;;;;3.65;1.98;;;21.20;91.10;;;21.30;100.00;100416.53;5048968;28;20043;-74
2022/07/27 03:05:09;;;;;;;2.55;1.83;;;21.20;91.30;;;21.32;100.00;100416.44;5032476;28;20080;-74
2022/07/27 03:07:36;;;;;;;4.18;2.10;;;21.20;91.30;;;21.20;100.00;100423.47;5031943;28;20819;-74
2022/07/27 03:10:04;;;;;;;2.75;1.75;;;21.20;91.20;;;21.14;100.00;100421.22;5047934;28;20034;-73
2022/07/27 03:12:31;;;;;;;4.25;2.00;;;21.10;91.20;;;21.22;100.00;100430.44;5050054;28;20734;-74
2022/07/27 03:14:58;;;;;;;3.95;2.10;;;21.10;91.00;;;21.15;100.00;100417.56;5049562;28;20216;-73
2022/07/27 03:17:25;;;;;;;2.08;1.80;;;21.10;91.20;;;21.16;100.00;100419.28;5048912;28;20045;-73
2022/07/27 03:19:52;;;;;;;2.40;1.80;;;21.00;91.20;;;21.10;100.00;100428.56;5048187;28;20515;-73
2022/07/27 03:22:19;;;;;;;3.50;2.10;;;21.00;91.50;;;21.17;100.00;100431.69;5049056;28;20546;-74
2022/07/27 03:24:46;;;;;;;3.53;2.08;;;21.00;91.30;;;21.09;100.00;100435.75;5048582;28;20047;-74
2022/07/27 03:27:13;;;;;;;4.43;2.63;;;21.00;91.50;;;21.12;100.00;100426.66;5049787;28;20040;-73
2022/07/27 03:29:40;;;;;;;3.78;1.77;;;21.00;91.50;;;21.13;100.00;100428.38;5048220;28;20098;-73
2022/07/27 03:32:08;;;;;;;4.05;2.08;;;21.00;91.40;;;21.07;100.00;100423.44;5032524;28;20060;-73
2022/07/27 03:34:35;;;;;;;2.95;2.00;;;21.00;91.40;;;21.11;100.00;100425.81;5049664;28;20033;-73
2022/07/27 03:37:02;;;;;;;2.10;1.85;;;21.00;91.50;;;21.08;100.00;100427.84;5032499;28;20550;-73
2022/07/27 03:39:29;;;;;;;5.32;2.20;;;21.00;91.60;;;21.13;100.00;100441.75;5049451;28;20033;-73
2022/07/27 03:41:56;;;;;;;2.70;1.92;;;20.90;91.30;;;21.03;100.00;100436.16;5031019;28;20055;-74
2022/07/27 03:44:23;;;;;;;3.15;1.75;;;20.90;91.50;;;21.05;100.00;100441.41;5031888;28;20247;-73
2022/07/27 03:46:50;;;;;;;3.60;1.60;;;20.80;91.40;;;20.96;100.00;100440.22;5048222;28;20099;-73
2022/07/27 03:49:17;;;;;;;2.80;1.70;;;21.00;91.50;;;21.00;100.00;100441.72;5040689;28;20041;-73
2022/07/27 03:51:44;;;;;;;2.20;1.75;;;20.90;91.50;;;20.91;100.00;100445.00;5028145;28;20599;-73
2022/07/27 03:54:11;;;;;;;1.52;1.40;;;20.90;91.40;;;20.99;100.00;100436.47;5037982;28;20099;-74
2022/07/27 03:56:38;;;;;;;2.28;1.60;;;20.80;91.50;;;20.96;100.00;100430.34;5029643;28;20056;-73
2022/07/27 03:59:05;;;;;;;4.15;1.67;;;20.90;91.50;;;20.91;100.00;100435.16;5027512;28;20041;-73
2022/07/27 04:01:32;;;;;;;2.33;1.75;;;20.90;91.40;;;20.95;100.00;100433.16;5011362;28;20050;-74
2022/07/27 04:03:59;;;;;;;2.22;1.85;;;20.80;91.50;;;20.92;100.00;100436.03;5014106;28;20119;-74
2022/07/27 04:06:27;;;;;;;4.82;1.52;;;20.90;91.40;;;20.88;100.00;100435.38;5027857;28;20049;-75
2022/07/27 04:08:54;;;;;;;3.05;1.48;;;20.80;91.50;;;20.89;100.00;100439.75;5028451;28;20059;-76
2022/07/27 04:11:35;;;;;;;1.85;1.35;;;20.80;91.50;;;20.83;100.00;100450.84;5017273;28;20042;-78
2022/07/27 04:14:10;;;;;;;2.88;1.77;;;20.80;91.60;;;20.76;100.00;100442.38;5039344;28;20087;-77
2022/07/27 04:16:40;;;;;;;1.90;1.20;;;20.70;91.50;;;20.81;100.00;100450.09;5011848;28;20049;-77
2022/07/27 04:19:07;;;;;;;2.45;1.33;;;20.70;91.60;;;20.85;100.00;100453.44;5011170;28;20050;-76
2022/07/27 04:21:34;;;;;;;3.20;1.40;;;20.70;91.50;;;20.86;100.00;100444.44;5027779;28;20045;-75
2022/07/27 04:24:01;;;;;;;1.52;1.30;;;20.70;91.50;;;20.82;100.00;100449.13;5017356;28;20426;-77
2022/07/27 04:26:28;;;;;;;3.75;1.63;;;20.70;91.50;;;20.83;100.00;100440.16;5043989;28;20042;-74
2022/07/27 04:28:56;;;;;;;1.35;1.15;;;20.70;91.50;;;20.79;100.00;100452.84;5026800;28;20507;-76
2022/07/27 04:31:23;;;;;;;1.67;1.33;;;20.70;91.40;;;20.83;100.00;100448.19;5027168;28;20076;-75
2022/07/27 04:33:50;;;;;;;1.77;1.30;;;20.70;91.50;;;20.79;100.00;100457.34;5038948;28;20084;-75
2022/07/27 04:36:17;;;;;;;2.08;1.38;;;20.70;91.60;;;20.81;100.00;100455.44;5027225;28;20045;-76
2022/07/27 04:38:44;;;;;;;1.75;1.30;;;20.70;91.60;;;20.82;100.00;100460.69;5029891;28;20038;-76
2022/07/27 04:41:11;;;;;;;4.00;1.38;;;20.70;91.60;;;20.66;100.00;100462.63;5027359;28;20041;-74
2022/07/27 04:43:38;;;;;;;3.10;1.35;;;20.70;91.80;;;20.64;100.00;100473.41;5028101;28;20116;-75
2022/07/27 04:46:06;;;;;;;5.97;1.70;;;20.70;92.00;;;20.64;100.00;100464.56;5010356;28;20048;-77
2022/07/27 04:48:41;;;;;;;3.53;1.75;;;20.70;91.90;;;20.80;100.00;100464.41;5028863;28;20114;-77
2022/07/27 04:51:16;;;;;;;3.05;1.50;;;20.70;91.90;;;20.77;100.00;100462.81;5025775;28;20607;-76
2022/07/27 04:53:43;;;;;;;3.33;1.30;;;20.70;91.80;;;20.78;100.00;100466.31;5046490;28;20053;-75
2022/07/27 04:56:25;;;;;;;2.60;1.40;;;20.70;91.80;;;20.80;100.00;100462.63;5027773;28;20042;-77
2022/07/27 04:58:56;;;;;;;1.60;1.20;;;20.70;91.70;;;20.86;100.00;100471.19;5010081;28;20679;-76
2022/07/27 05:01:24;;;;;;;2.47;1.40;;;20.70;91.70;;;20.90;100.00;100468.22;5027859;28;20049;-77
2022/07/27 05:03:52;;;;;;;2.05;1.30;;;20.70;91.50;;;20.90;100.00;100472.69;5010959;28;20659;-77
2022/07/27 05:06:19;;;;;;;2.58;1.30;;;20.80;91.50;;;20.91;100.00;100463.72;5027772;28;20069;-77
2022/07/27 05:08:46;;;;;;;2.22;1.52;;;20.80;91.60;;;20.92;100.00;100466.28;5011253;28;20426;-77
2022/07/27 05:11:14;;;;;;;2.75;1.45;;;20.80;91.50;;;20.89;100.00;100466.50;5063091;28;20043;-77
2022/07/27 05:13:41;;;;;;;3.17;1.73;;;20.80;91.50;;;20.94;100.00;100468.88;5047595;28;20429;-76
2022/07/27 05:16:09;;;;;;;2.35;1.60;;;20.80;91.40;;;20.93;100.00;100478.72;5048814;28;20049;-76
2022/07/27 05:18:37;;;;;;;2.40;1.20;;;20.80;91.40;;;20.88;100.00;100463.91;5030899;28;20040;-76
2022/07/27 05:21:06;;;;;;;3.53;1.38;;;20.80;91.50;;;20.93;100.00;100475.19;5049916;28;20051;-78
2022/07/27 05:23:34;;;;;;;2.80;1.52;;;20.80;91.40;;;20.96;100.00;100473.16;5050203;28;20525;-77
2022/07/27 05:26:01;;;;;;;3.03;1.55;;;20.90;91.40;;;20.99;100.00;100474.78;5049382;28;20037;-77
2022/07/27 05:28:29;;;;;;;3.67;1.85;;;20.90;91.30;;;20.99;100.00;100474.78;5049974;28;20037;-77
2022/07/27 05:30:56;;;;;;;3.03;1.30;;;20.90;91.40;;;21.02;100.00;100484.41;5033392;28;20041;-78
2022/07/27 05:33:23;;;;;;;4.82;1.10;;;21.80;91.50;;;20.96;100.00;100485.69;5051193;28;20049;-78
2022/07/27 05:35:51;;;;;;;2.10;1.30;;;20.90;91.10;;;20.99;100.00;100492.63;5048197;28;20044;-76
2022/07/27 05:38:18;;;;;;;2.05;1.00;;;20.90;91.00;;;21.02;100.00;100495.97;5030607;28;20055;-76
2022/07/27 05:40:45;;;;;;;1.88;1.02;;;20.90;91.00;;;20.95;100.00;100495.50;5048240;28;20059;-76
2022/07/27 05:43:13;;;;;;;1.00;0.82;;;20.90;90.90;;;20.90;100.00;100499.44;5050488;28;20484;-76
2022/07/27 05:45:40;;;;;;;5.07;1.35;;;20.90;90.80;;;20.97;100.00;100500.75;5054467;28;20508;-76
2022/07/27 05:48:08;;;;;;;1.95;1.10;;;20.90;90.90;;;21.00;100.00;100502.38;5047483;28;20519;-77
2022/07/27 05:50:35;;;;;;;1.48;0.98;;;20.90;90.80;;;20.99;100.00;100495.31;5029867;28;20048;-77
2022/07/27 05:53:02;;;;;;;2.20;1.00;;;20.90;90.70;;;21.01;100.00;100504.09;5046704;28;20055;-76
2022/07/27 05:55:29;;;;;;;2.90;0.90;;;20.90;90.80;;;20.93;100.00;100513.47;5016252;28;20050;-77
2022/07/27 05:57:56;;;;;;;2.30;1.30;;;20.90;90.70;;;21.03;100.00;100507.53;5046068;28;20114;-79
2022/07/27 06:00:23;;;;;;;1.63;1.25;;;20.90;90.80;;;21.06;100.00;100508.16;5046343;28;20053;-77
2022/07/27 06:02:50;;;;;;;1.08;0.98;;;21.00;90.70;;;21.14;100.00;100518.34;5046603;28;20052;-77
2022/07/27 06:05:17;;;;;;;2.00;1.25;;;21.00;90.70;;;21.15;100.00;100514.75;5046045;28;20039;-77
2022/07/27 06:08:05;;;;;;;2.20;1.15;;;21.00;90.60;;;21.22;100.00;100516.03;5046632;28;20127;-76
2022/07/27 06:10:35;;;;;;;3.05;1.15;;;21.10;90.80;;;21.21;100.00;100524.16;5023264;28;20116;-76
2022/07/27 06:13:04;;;;;;;0.73;0.65;;;21.20;90.60;;;21.23;100.00;100525.78;5046380;28;20049;-77
2022/07/27 06:15:32;;;;;;;1.77;1.20;;;21.10;90.60;;;21.33;100.00;100527.84;5042000;28;20128;-77
2022/07/27 06:17:59;;;;;;;5.25;1.45;;;21.10;90.50;;;21.34;100.00;100532.25;5026453;28;20056;-77
2022/07/27 06:20:26;;;;;;;2.45;1.40;;;21.20;90.50;;;21.31;100.00;100529.75;5027675;28;20060;-76
2022/07/27 06:23:03;;;;;;;1.52;1.25;;;21.20;90.50;;;21.36;100.00;100533.00;5010178;28;20049;-77
2022/07/27 06:25:34;;;;;;;;;;;21.30;90.50;;;21.42;100.00;100532.56;5026464;28;20592;-76
2022/07/27 06:28:04;;;;;;;5.72;0.98;;;21.30;90.60;;;21.48;100.00;100526.81;5029942;28;19924;-77
2022/07/27 06:30:32;;;;;;;1.92;1.08;;;21.30;90.50;;;21.46;100.00;100527.88;5046035;28;20124;-77
2022/07/27 06:32:59;;;;;;;1.67;1.00;;;21.30;90.50;;;21.46;100.00;100536.75;5046650;28;20041;-77
2022/07/27 06:35:26;;;;;;;1.65;0.82;;;21.30;90.40;;;21.27;100.00;100541.63;5029834;28;20052;-76
2022/07/27 06:37:53;;;;;;;2.78;1.25;;;21.40;90.40;;;21.36;100.00;100538.34;5046174;28;20064;-76
2022/07/27 06:40:21;;;;;;;1.42;0.80;;;21.30;90.50;;;21.27;100.00;100542.50;5046065;28;20516;-76
2022/07/27 06:42:51;;;;;;;3.40;1.38;;;21.30;90.60;;;21.33;100.00;100541.25;5046024;28;20151;-76
2022/07/27 06:45:18;;;;;;;5.15;1.20;;;21.30;90.40;;;21.27;100.00;100544.31;5046086;28;20052;-76
2022/07/27 06:47:45;;;;;;;5.07;1.30;;;21.40;90.70;;;21.44;100.00;100543.19;5029816;28;20045;-76
2022/07/27 06:50:19;;;;;;;8.02;1.40;;;21.40;90.60;;;21.35;100.00;100539.31;5046271;28;20562;-77
2022/07/27 06:52:49;;;;;;;4.65;1.70;;;21.40;90.40;;;21.50;100.00;100542.75;5029957;28;20144;-77
2022/07/27 06:55:16;;;;;;;;;;;21.40;90.50;;;21.61;100.00;100542.03;5027367;28;20475;-75
2022/07/27 06:57:45;;;;;;;1.10;1.00;;;21.40;90.40;;;21.56;100.00;100536.13;5010248;28;19925;-76
2022/07/27 07:00:13;;;;;;;2.35;1.60;;;21.50;90.40;;;21.57;100.00;100536.06;5026205;28;20049;-76
2022/07/27 07:02:59;;;;;;;1.73;0.93;;;21.50;90.40;;;21.62;100.00;100549.97;5027110;28;20050;-77
2022/07/27 07:05:26;;;;;;;5.18;1.00;;;21.60;90.40;;;21.66;100.00;100545.31;5032587;28;20052;-76
2022/07/27 07:07:54;;;;;;;2.85;1.38;;;21.60;90.40;;;21.72;100.00;100549.38;5025735;28;20037;-76
2022/07/27 07:10:22;;;;;;;3.50;0.98;;;21.60;90.40;;;21.73;100.00;100538.56;5033394;28;20047;-75
2022/07/27 07:12:54;;;;;;;6.90;1.40;;;21.70;90.40;;;21.76;100.00;100543.69;5027967;28;20037;-76
2022/07/27 07:15:25;;;;;;;3.13;1.20;;;21.70;90.20;;;21.75;100.00;100546.50;5045531;28;20498;-77
2022/07/27 07:17:53;;;;;;;2.92;1.05;;;21.70;90.20;;;21.76;100.00;100541.00;5033348;28;20506;-76
2022/07/27 07:20:21;;;;;;;4.38;1.30;;;21.70;90.00;;;21.81;100.00;100548.75;5042498;28;20382;-76
2022/07/27 07:22:49;;;;;;;2.78;1.05;;;21.70;90.10;;;21.88;100.00;100547.38;5033498;28;20053;-77
2022/07/27 07:25:16;;;;;;;3.08;1.42;;;21.80;90.10;;;21.90;100.00;100547.25;5049141;28;20033;-77
2022/07/27 07:27:43;;;;;;;3.28;1.10;;;21.80;90.10;;;21.82;100.00;100547.78;5049878;28;20718;-77
2022/07/27 07:30:11;;;;;;;3.05;1.50;;;21.80;90.10;;;21.91;100.00;100551.63;5040784;28;20059;-77
2022/07/27 07:32:38;;;;;;;2.38;1.00;;;21.80;90.20;;;21.78;100.00;100548.94;5046618;28;20049;-77
2022/07/27 07:35:07;;;;;;;3.08;1.42;;;21.80;90.00;;;21.94;100.00;100554.13;5033010;28;20128;-78
2022/07/27 07:37:34;;;;;;;3.97;1.45;;;21.80;90.00;;;21.90;100.00;100553.47;5046256;28;20049;-77
2022/07/27 07:40:02;;;;;;;2.47;1.40;;;21.80;89.90;;;21.93;100.00;100555.06;5030709;28;20049;-77
2022/07/27 07:43:01;;;;;;;1.25;1.10;;;21.80;90.00;;;21.87;100.00;100556.38;5033574;28;20051;-77
2022/07/27 07:45:32;;;;;;;1.65;1.20;;;21.80;90.00;;;22.05;100.00;100556.91;5032564;28;20141;-77
2022/07/27 07:47:59;;;;;;;2.08;1.10;;;21.90;90.10;;;22.14;100.00;100552.72;5029866;28;20045;-77
2022/07/27 07:50:27;;;;;;;4.18;1.10;;;21.90;90.10;;;22.24;100.00;100555.59;5028858;28;20148;-77
2022/07/27 07:52:54;;;;;;;1.92;1.10;;;22.00;90.00;;;22.49;100.00;100557.47;5032765;28;20697;-78
2022/07/27 07:55:25;;;;;;;3.08;1.38;;;22.20;89.80;;;22.46;100.00;100546.91;5032931;28;20041;-77
2022/07/27 07:57:52;;;;;;;4.40;1.48;;;22.20;89.40;;;22.49;100.00;100553.91;5033163;28;20181;-77
2022/07/27 08:00:21;;;;;;;3.25;1.33;;;22.30;89.00;;;22.52;100.00;100551.88;5049781;28;20067;-77
2022/07/27 08:02:52;;;;;;;2.03;1.02;;;22.30;89.20;;;22.65;100.00;100545.63;5033423;28;20052;-77
2022/07/27 08:05:20;;;;;;;4.00;1.13;;;22.40;88.90;;;22.84;100.00;100553.16;5013330;28;20073;-77
2022/07/27 08:07:48;;;;;;;3.70;1.52;;;22.60;88.70;;;22.90;100.00;100551.88;5029930;28;20168;-77
2022/07/27 08:10:19;;;;;;;2.58;1.10;;;22.70;88.50;;;22.95;100.00;100553.25;5030496;28;20041;-77
2022/07/27 08:12:50;;;;;;;4.13;1.30;;;22.70;87.90;;;23.15;100.00;100548.22;5020998;28;20038;-77
2022/07/27 08:15:19;;;;;;;5.05;1.70;;;22.80;87.70;;;23.25;100.00;100551.06;5042634;28;20734;-77
2022/07/27 08:17:47;;;;;;;1.97;1.17;;;23.00;87.80;;;23.23;100.00;100550.34;5048158;28;20048;-77
2022/07/27 08:20:16;;;;;;;3.03;1.20;;;23.10;87.30;;;23.23;100.00;100553.88;5047832;28;20535;-77
2022/07/27 08:22:44;;;;;;;3.08;1.52;;;23.20;87.20;;;23.15;100.00;100556.28;5031674;28;20580;-76
2022/07/27 08:25:11;;;;;;;4.63;1.02;;;23.10;87.30;;;23.27;100.00;100554.56;5047846;28;20401;-76
2022/07/27 08:27:39;;;;;;;2.85;1.17;;;23.10;87.40;;;23.21;100.00;100558.53;5064373;28;20057;-77
2022/07/27 08:30:09;;;;;;;2.88;1.23;;;23.10;87.10;;;23.26;100.00;100551.94;5031098;28;20107;-76
2022/07/27 08:32:59;;;;;;;2.67;1.20;;;23.10;87.00;;;23.30;99.82;100556.13;5047926;28;20052;-76
2022/07/27 08:35:28;;;;;;;4.07;1.45;;;23.20;86.90;;;23.29;99.17;100560.66;5047812;28;20045;-76
2022/07/27 08:37:55;;;;;;;4.80;1.33;;;23.20;86.60;;;23.18;99.72;100560.56;5047710;28;20095;-76
2022/07/27 08:40:24;;;;;;;2.72;1.00;;;23.20;86.60;;;23.22;99.30;100554.00;5047412;28;20461;-76
2022/07/27 08:43:07;;;;;;;2.40;1.20;;;23.20;86.90;;;23.18;99.40;100556.06;5047950;28;20148;-76
2022/07/27 08:45:36;;;;;;;4.00;1.35;;;23.20;86.50;;;23.26;99.64;100560.00;5047551;28;20041;-76
2022/07/27 08:48:04;;;;;;;4.50;1.50;;;23.10;86.60;;;23.25;99.28;100551.06;5031085;28;20045;-77
2022/07/27 08:50:33;;;;;;;2.80;1.33;;;23.20;86.50;;;23.15;100.00;100550.91;5047170;28;20049;-77
2022/07/27 08:53:07;;;;;;;2.88;1.30;;;23.10;86.50;;;23.30;99.89;100561.50;5047387;28;20106;-76
2022/07/27 08:55:41;;;;;;;3.45;1.58;;;23.10;86.70;;;23.45;99.82;100559.50;5047209;28;20044;-77
2022/07/27 08:58:10;;;;;;;5.60;1.35;;;23.20;86.90;;;23.45;98.02;100556.81;5031090;28;20449;-77
2022/07/27 09:00:44;;;;;;;4.38;1.88;;;23.20;86.40;;;23.57;97.51;100549.66;5047125;28;20036;-76
2022/07/27 09:03:13;;;;;;;4.03;1.20;;;23.30;86.40;;;23.77;95.19;100551.66;5031118;28;20051;-76
2022/07/27 09:05:50;;;;;;;2.10;1.13;;;23.40;86.10;;;23.92;88.01;100548.75;5047466;28;20124;-76
2022/07/27 09:08:22;;;;;;;4.25;1.35;;;23.50;84.60;;;23.89;90.84;100555.25;5030974;28;20048;-77
2022/07/27 09:10:54;;;;;;;3.53;1.50;;;23.60;84.90;;;23.90;88.44;100550.72;5047133;28;20041;-77
2022/07/27 09:13:25;;;;;;;2.28;0.90;;;23.70;84.30;;;24.06;87.80;100547.72;5047485;28;20076;-77
2022/07/27 09:16:03;;;;;;;3.30;1.20;;;23.80;84.20;;;24.13;86.17;100551.63;5047287;28;20110;-77
2022/07/27 09:18:56;;;;;;;3.50;1.30;;;23.90;83.90;;;24.18;86.23;100556.66;5046751;28;20056;-77
2022/07/27 09:21:24;;;;;;;3.00;1.13;;;24.00;83.70;;;24.28;85.92;100554.09;5046964;28;20409;-76
2022/07/27 09:23:57;;;;;;;3.03;1.50;;;24.00;83.60;;;24.36;83.79;100547.13;5023541;28;20801;-77
2022/07/27 09:26:28;;;;;;;3.25;1.13;;;24.10;83.20;;;24.41;82.82;100546.75;5048135;28;20123;-76
2022/07/27 09:29:12;;;;;;;1.75;1.30;;;24.20;83.00;;;24.22;80.07;100547.38;5046480;28;20044;-78
2022/07/27 09:31:49;;;;;;;4.43;1.13;;;24.20;82.00;;;24.32;79.47;100551.03;5031303;28;20131;-76
2022/07/27 09:34:33;;;;;;;8.23;1.42;;;24.10;81.90;;;24.17;76.79;100549.56;5046452;28;20052;-78
2022/07/27 09:37:05;;;;;;;2.20;1.10;;;24.10;81.10;;;24.44;79.72;100541.13;5035532;28;20076;-78
2022/07/27 09:39:32;;;;;;;2.22;1.10;;;24.10;82.10;;;24.46;76.81;100535.66;5026558;28;20490;-76
2022/07/27 09:42:01;;;;;;;2.70;0.93;;;24.30;81.60;;;24.58;77.22;100545.38;5027914;28;21445;-77
2022/07/27 09:44:41;;;;;;;2.63;1.00;;;24.30;81.80;;;24.59;73.47;100539.06;5027039;28;20128;-78
2022/07/27 09:47:27;;;;;;;1.92;1.00;;;24.30;80.70;;;24.79;70.79;100547.38;5042991;28;20041;-76
2022/07/27 09:50:15;;;;;;;1.67;1.20;;;24.40;80.20;;;24.87;67.46;100541.34;5031249;28;20172;-79
2022/07/27 09:52:43;;;;;;;3.35;1.05;;;24.50;79.50;;;25.01;66.12;100538.38;5040765;28;20120;-76
2022/07/27 09:55:10;;;;;;;3.72;1.27;;;24.70;79.10;;;25.03;64.31;100543.63;5042786;28;20076;-76
2022/07/27 09:57:57;;;;;;;2.65;1.10;;;24.70;78.50;;;25.10;62.39;100547.53;5042314;28;20128;-76
2022/07/27 10:00:26;;;;;;;3.70;1.05;;;24.80;78.20;;;25.22;64.23;100544.81;5042729;28;20077;-75
2022/07/27 10:02:54;;;;;;;4.32;1.40;;;24.90;78.60;;;25.12;62.14;100534.81;5042899;28;20045;-75
2022/07/27 10:05:22;;;;;;;4.40;1.45;;;25.00;77.80;;;25.05;60.62;100552.44;5026207;28;20406;-75
2022/07/27 10:07:52;;;;;;;2.75;1.45;;;25.00;76.90;;;25.08;60.40;100548.63;5042724;28;20108;-76
2022/07/27 10:10:20;;;;;;;2.70;1.25;;;25.00;76.70;;;24.96;60.88;100547.81;5042937;28;20414;-76
2022/07/27 10:12:47;;;;;;;2.00;1.08;;;25.00;76.60;;;25.11;61.64;100543.84;5020264;28;20397;-75
2022/07/27 10:15:23;;;;;;;4.20;1.40;;;24.90;77.00;;;25.26;61.95;100547.09;5026520;28;20042;-75
2022/07/27 10:18:10;;;;;;;2.90;1.40;;;25.00;77.10;;;25.26;60.96;100552.47;5010256;28;20049;-75